sensor_id;sensor_type;location;lat;lon;timestamp;P1;durP1;ratioP1;P2;durP2;ratioP2
3405;SDS011;10008;48.682;9.016;2023-12-29T00:01:58;11.63;;;10.73;;
3405;SDS011;10008;48.682;9.016;2023-12-29T00:04:28;11.73;;;10.73;;
3405;SDS011;10008;48.682;9.016;2023-12-29T00:06:54;11.30;;;10.40;;
3405;SDS011;10008;48.682;9.016;2023-12-29T00:09:21;11.50;;;10.60;;
3405;SDS011;10008;48.682;9.016;2023-12-29T00:11:47;11.63;;;10.63;;
3405;SDS011;10008;48.682;9.016;2023-12-29T00:14:13;11.90;;;11.00;;
3405;SDS011;10008;48.682;9.016;2023-12-29T00:16:39;12.43;;;11.40;;
3405;SDS011;10008;48.682;9.016;2023-12-29T00:19:05;11.37;;;10.57;;
3405;SDS011;10008;48.682;9.016;2023-12-29T00:21:30;11.60;;;10.70;;
3405;SDS011;10008;48.682;9.016;2023-12-29T00:23:56;11.53;;;10.63;;
3405;SDS011;10008;48.682;9.016;2023-12-29T00:26:22;11.70;;;10.80;;
3405;SDS011;10008;48.682;9.016;2023-12-29T00:28:53;11.30;;;10.30;;
3405;SDS011;10008;48.682;9.016;2023-12-29T00:31:20;10.83;;;9.93;;
3405;SDS011;10008;48.682;9.016;2023-12-29T00:33:45;11.17;;;10.27;;
3405;SDS011;10008;48.682;9.016;2023-12-29T00:36:15;11.30;;;10.40;;
3405;SDS011;10008;48.682;9.016;2023-12-29T00:38:41;12.00;;;11.00;;
3405;SDS011;10008;48.682;9.016;2023-12-29T00:41:07;11.37;;;10.47;;
3405;SDS011;10008;48.682;9.016;2023-12-29T00:43:33;11.87;;;10.97;;
3405;SDS011;10008;48.682;9.016;2023-12-29T00:46:01;12.50;;;11.40;;
3405;SDS011;10008;48.682;9.016;2023-12-29T00:48:27;13.07;;;12.03;;
3405;SDS011;10008;48.682;9.016;2023-12-29T00:50:52;12.50;;;11.37;;
3405;SDS011;10008;48.682;9.016;2023-12-29T00:53:18;12.43;;;11.33;;
3405;SDS011;10008;48.682;9.016;2023-12-29T00:55:44;12.20;;;11.20;;
3405;SDS011;10008;48.682;9.016;2023-12-29T00:58:09;12.43;;;11.43;;
3405;SDS011;10008;48.682;9.016;2023-12-29T01:00:35;12.73;;;11.53;;
3405;SDS011;10008;48.682;9.016;2023-12-29T01:03:01;12.30;;;11.30;;
3405;SDS011;10008;48.682;9.016;2023-12-29T01:05:27;12.07;;;11.07;;
3405;SDS011;10008;48.682;9.016;2023-12-29T01:07:53;12.27;;;11.27;;
3405;SDS011;10008;48.682;9.016;2023-12-29T01:10:19;11.77;;;10.77;;
3405;SDS011;10008;48.682;9.016;2023-12-29T01:12:45;12.97;;;11.80;;
3405;SDS011;10008;48.682;9.016;2023-12-29T01:15:11;11.77;;;10.87;;
3405;SDS011;10008;48.682;9.016;2023-12-29T01:17:36;12.07;;;11.07;;
3405;SDS011;10008;48.682;9.016;2023-12-29T01:20:02;12.10;;;11.10;;
3405;SDS011;10008;48.682;9.016;2023-12-29T01:22:29;11.53;;;10.63;;
3405;SDS011;10008;48.682;9.016;2023-12-29T01:24:55;11.73;;;10.73;;
3405;SDS011;10008;48.682;9.016;2023-12-29T01:27:23;11.83;;;10.83;;
3405;SDS011;10008;48.682;9.016;2023-12-29T01:29:49;11.87;;;10.97;;
3405;SDS011;10008;48.682;9.016;2023-12-29T01:32:15;12.53;;;11.60;;
3405;SDS011;10008;48.682;9.016;2023-12-29T01:34:40;12.57;;;11.57;;
3405;SDS011;10008;48.682;9.016;2023-12-29T01:37:06;11.67;;;10.77;;
3405;SDS011;10008;48.682;9.016;2023-12-29T01:39:33;11.93;;;10.93;;
3405;SDS011;10008;48.682;9.016;2023-12-29T01:41:59;12.30;;;11.20;;
3405;SDS011;10008;48.682;9.016;2023-12-29T01:44:25;12.17;;;11.20;;
3405;SDS011;10008;48.682;9.016;2023-12-29T01:46:52;12.47;;;11.30;;
3405;SDS011;10008;48.682;9.016;2023-12-29T01:49:20;11.43;;;10.40;;
3405;SDS011;10008;48.682;9.016;2023-12-29T01:51:50;11.40;;;10.50;;
3405;SDS011;10008;48.682;9.016;2023-12-29T01:54:19;11.30;;;10.30;;
3405;SDS011;10008;48.682;9.016;2023-12-29T01:56:46;12.93;;;11.80;;
3405;SDS011;10008;48.682;9.016;2023-12-29T01:59:13;12.83;;;11.77;;
3405;SDS011;10008;48.682;9.016;2023-12-29T02:01:39;12.20;;;11.10;;
3405;SDS011;10008;48.682;9.016;2023-12-29T02:04:06;12.67;;;11.60;;
3405;SDS011;10008;48.682;9.016;2023-12-29T02:06:33;12.53;;;11.53;;
3405;SDS011;10008;48.682;9.016;2023-12-29T02:09:01;12.53;;;11.50;;
3405;SDS011;10008;48.682;9.016;2023-12-29T02:11:28;12.43;;;11.30;;
3405;SDS011;10008;48.682;9.016;2023-12-29T02:13:55;12.60;;;11.40;;
3405;SDS011;10008;48.682;9.016;2023-12-29T02:16:33;12.37;;;11.30;;
3405;SDS011;10008;48.682;9.016;2023-12-29T02:19:13;11.73;;;10.63;;
3405;SDS011;10008;48.682;9.016;2023-12-29T02:21:44;11.47;;;10.50;;
3405;SDS011;10008;48.682;9.016;2023-12-29T02:24:11;12.00;;;10.77;;
3405;SDS011;10008;48.682;9.016;2023-12-29T02:26:37;11.37;;;10.47;;
3405;SDS011;10008;48.682;9.016;2023-12-29T02:29:06;12.37;;;11.37;;
3405;SDS011;10008;48.682;9.016;2023-12-29T02:31:34;12.83;;;11.73;;
3405;SDS011;10008;48.682;9.016;2023-12-29T02:34:05;12.10;;;11.10;;
3405;SDS011;10008;48.682;9.016;2023-12-29T02:36:33;12.83;;;11.83;;
3405;SDS011;10008;48.682;9.016;2023-12-29T02:39:07;13.40;;;12.20;;
3405;SDS011;10008;48.682;9.016;2023-12-29T02:41:39;13.47;;;12.37;;
3405;SDS011;10008;48.682;9.016;2023-12-29T02:44:05;12.87;;;11.77;;
3405;SDS011;10008;48.682;9.016;2023-12-29T02:46:31;14.67;;;13.30;;
3405;SDS011;10008;48.682;9.016;2023-12-29T02:48:57;13.43;;;12.30;;
3405;SDS011;10008;48.682;9.016;2023-12-29T02:51:24;13.37;;;12.27;;
3405;SDS011;10008;48.682;9.016;2023-12-29T02:53:50;14.63;;;13.33;;
3405;SDS011;10008;48.682;9.016;2023-12-29T02:56:15;13.90;;;12.57;;
3405;SDS011;10008;48.682;9.016;2023-12-29T02:58:41;14.10;;;12.77;;
3405;SDS011;10008;48.682;9.016;2023-12-29T03:01:07;13.60;;;12.40;;
3405;SDS011;10008;48.682;9.016;2023-12-29T03:03:33;14.47;;;13.27;;
3405;SDS011;10008;48.682;9.016;2023-12-29T03:05:59;13.93;;;12.73;;
3405;SDS011;10008;48.682;9.016;2023-12-29T03:08:25;14.03;;;12.73;;
3405;SDS011;10008;48.682;9.016;2023-12-29T03:10:51;13.37;;;12.27;;
3405;SDS011;10008;48.682;9.016;2023-12-29T03:13:16;13.40;;;12.30;;
3405;SDS011;10008;48.682;9.016;2023-12-29T03:15:42;13.00;;;11.90;;
3405;SDS011;10008;48.682;9.016;2023-12-29T03:18:08;13.43;;;12.33;;
3405;SDS011;10008;48.682;9.016;2023-12-29T03:20:33;13.87;;;12.67;;
3405;SDS011;10008;48.682;9.016;2023-12-29T03:22:59;13.60;;;12.40;;
3405;SDS011;10008;48.682;9.016;2023-12-29T03:25:25;13.47;;;12.47;;
3405;SDS011;10008;48.682;9.016;2023-12-29T03:27:50;14.10;;;12.70;;
3405;SDS011;10008;48.682;9.016;2023-12-29T03:30:16;13.43;;;12.43;;
3405;SDS011;10008;48.682;9.016;2023-12-29T03:32:42;13.80;;;12.73;;
3405;SDS011;10008;48.682;9.016;2023-12-29T03:35:08;13.57;;;12.27;;
3405;SDS011;10008;48.682;9.016;2023-12-29T03:37:34;12.43;;;11.33;;
3405;SDS011;10008;48.682;9.016;2023-12-29T03:39:59;12.60;;;11.50;;
3405;SDS011;10008;48.682;9.016;2023-12-29T03:42:25;12.80;;;11.80;;
3405;SDS011;10008;48.682;9.016;2023-12-29T03:44:51;13.97;;;12.77;;
3405;SDS011;10008;48.682;9.016;2023-12-29T03:47:16;13.80;;;12.70;;
3405;SDS011;10008;48.682;9.016;2023-12-29T03:49:42;14.30;;;12.90;;
3405;SDS011;10008;48.682;9.016;2023-12-29T03:52:08;13.50;;;12.40;;
3405;SDS011;10008;48.682;9.016;2023-12-29T03:54:35;14.80;;;13.53;;
3405;SDS011;10008;48.682;9.016;2023-12-29T03:57:01;14.50;;;13.40;;
3405;SDS011;10008;48.682;9.016;2023-12-29T03:59:26;13.93;;;12.83;;
3405;SDS011;10008;48.682;9.016;2023-12-29T04:01:53;14.67;;;13.37;;
3405;SDS011;10008;48.682;9.016;2023-12-29T04:04:18;14.40;;;13.30;;
3405;SDS011;10008;48.682;9.016;2023-12-29T04:06:44;14.40;;;13.30;;
3405;SDS011;10008;48.682;9.016;2023-12-29T04:09:10;14.27;;;13.10;;
3405;SDS011;10008;48.682;9.016;2023-12-29T04:11:35;12.47;;;11.57;;
3405;SDS011;10008;48.682;9.016;2023-12-29T04:14:01;14.40;;;13.20;;
3405;SDS011;10008;48.682;9.016;2023-12-29T04:16:27;13.40;;;12.20;;
3405;SDS011;10008;48.682;9.016;2023-12-29T04:18:54;12.90;;;11.90;;
3405;SDS011;10008;48.682;9.016;2023-12-29T04:21:19;13.10;;;12.10;;
3405;SDS011;10008;48.682;9.016;2023-12-29T04:23:45;12.50;;;11.50;;
3405;SDS011;10008;48.682;9.016;2023-12-29T04:26:12;14.37;;;13.00;;
3405;SDS011;10008;48.682;9.016;2023-12-29T04:28:37;13.57;;;12.57;;
3405;SDS011;10008;48.682;9.016;2023-12-29T04:31:03;13.60;;;12.50;;
3405;SDS011;10008;48.682;9.016;2023-12-29T04:33:29;15.07;;;13.87;;
3405;SDS011;10008;48.682;9.016;2023-12-29T04:35:54;15.17;;;13.77;;
3405;SDS011;10008;48.682;9.016;2023-12-29T04:38:20;15.13;;;13.83;;
3405;SDS011;10008;48.682;9.016;2023-12-29T04:40:46;15.87;;;14.37;;
3405;SDS011;10008;48.682;9.016;2023-12-29T04:43:15;15.23;;;13.87;;
3405;SDS011;10008;48.682;9.016;2023-12-29T04:45:40;15.00;;;13.73;;
3405;SDS011;10008;48.682;9.016;2023-12-29T04:48:06;15.10;;;13.80;;
3405;SDS011;10008;48.682;9.016;2023-12-29T04:50:32;15.93;;;14.43;;
3405;SDS011;10008;48.682;9.016;2023-12-29T04:52:57;16.07;;;14.67;;
3405;SDS011;10008;48.682;9.016;2023-12-29T04:55:23;15.97;;;14.57;;
3405;SDS011;10008;48.682;9.016;2023-12-29T04:57:49;16.00;;;14.60;;
3405;SDS011;10008;48.682;9.016;2023-12-29T05:00:14;16.20;;;14.87;;
3405;SDS011;10008;48.682;9.016;2023-12-29T05:02:40;16.30;;;14.90;;
3405;SDS011;10008;48.682;9.016;2023-12-29T05:05:06;15.87;;;14.40;;
3405;SDS011;10008;48.682;9.016;2023-12-29T05:07:32;16.27;;;14.87;;
3405;SDS011;10008;48.682;9.016;2023-12-29T05:09:58;16.37;;;14.97;;
3405;SDS011;10008;48.682;9.016;2023-12-29T05:12:24;16.90;;;15.40;;
3405;SDS011;10008;48.682;9.016;2023-12-29T05:14:50;15.60;;;14.30;;
3405;SDS011;10008;48.682;9.016;2023-12-29T05:17:15;16.47;;;15.10;;
3405;SDS011;10008;48.682;9.016;2023-12-29T05:19:41;17.23;;;15.93;;
3405;SDS011;10008;48.682;9.016;2023-12-29T05:22:07;15.97;;;14.57;;
3405;SDS011;10008;48.682;9.016;2023-12-29T05:24:32;16.83;;;15.40;;
3405;SDS011;10008;48.682;9.016;2023-12-29T05:26:58;17.00;;;15.53;;
3405;SDS011;10008;48.682;9.016;2023-12-29T05:29:24;16.23;;;14.93;;
3405;SDS011;10008;48.682;9.016;2023-12-29T05:31:50;16.30;;;15.00;;
3405;SDS011;10008;48.682;9.016;2023-12-29T05:34:15;15.77;;;14.37;;
3405;SDS011;10008;48.682;9.016;2023-12-29T05:36:41;17.73;;;16.13;;
3405;SDS011;10008;48.682;9.016;2023-12-29T05:39:07;16.40;;;15.00;;
3405;SDS011;10008;48.682;9.016;2023-12-29T05:41:33;16.80;;;15.40;;
3405;SDS011;10008;48.682;9.016;2023-12-29T05:43:58;16.23;;;14.93;;
3405;SDS011;10008;48.682;9.016;2023-12-29T05:46:26;16.90;;;15.40;;
3405;SDS011;10008;48.682;9.016;2023-12-29T05:48:51;16.20;;;14.90;;
3405;SDS011;10008;48.682;9.016;2023-12-29T05:51:17;16.20;;;14.80;;
3405;SDS011;10008;48.682;9.016;2023-12-29T05:53:43;16.10;;;14.53;;
3405;SDS011;10008;48.682;9.016;2023-12-29T05:56:11;17.60;;;16.10;;
3405;SDS011;10008;48.682;9.016;2023-12-29T05:58:37;15.63;;;14.43;;
3405;SDS011;10008;48.682;9.016;2023-12-29T06:01:05;16.40;;;15.00;;
3405;SDS011;10008;48.682;9.016;2023-12-29T06:03:30;17.37;;;15.87;;
3405;SDS011;10008;48.682;9.016;2023-12-29T06:05:56;18.70;;;17.20;;
3405;SDS011;10008;48.682;9.016;2023-12-29T06:08:22;18.63;;;17.13;;
3405;SDS011;10008;48.682;9.016;2023-12-29T06:10:48;19.33;;;17.63;;
3405;SDS011;10008;48.682;9.016;2023-12-29T06:13:13;20.20;;;18.50;;
3405;SDS011;10008;48.682;9.016;2023-12-29T06:15:40;20.90;;;19.00;;
3405;SDS011;10008;48.682;9.016;2023-12-29T06:18:05;21.63;;;19.73;;
3405;SDS011;10008;48.682;9.016;2023-12-29T06:20:31;21.33;;;19.53;;
3405;SDS011;10008;48.682;9.016;2023-12-29T06:22:57;22.33;;;20.33;;
3405;SDS011;10008;48.682;9.016;2023-12-29T06:25:23;21.70;;;19.90;;
3405;SDS011;10008;48.682;9.016;2023-12-29T06:27:49;23.00;;;21.00;;
3405;SDS011;10008;48.682;9.016;2023-12-29T06:30:14;22.47;;;20.47;;
3405;SDS011;10008;48.682;9.016;2023-12-29T06:32:40;20.20;;;18.40;;
3405;SDS011;10008;48.682;9.016;2023-12-29T06:35:07;21.00;;;19.10;;
3405;SDS011;10008;48.682;9.016;2023-12-29T06:37:35;21.27;;;19.47;;
3405;SDS011;10008;48.682;9.016;2023-12-29T06:40:06;20.10;;;18.40;;
3405;SDS011;10008;48.682;9.016;2023-12-29T06:42:32;19.57;;;17.57;;
3405;SDS011;10008;48.682;9.016;2023-12-29T06:44:58;20.13;;;18.27;;
3405;SDS011;10008;48.682;9.016;2023-12-29T06:47:23;19.80;;;18.03;;
3405;SDS011;10008;48.682;9.016;2023-12-29T06:49:49;19.47;;;17.73;;
3405;SDS011;10008;48.682;9.016;2023-12-29T06:52:16;19.53;;;17.73;;
3405;SDS011;10008;48.682;9.016;2023-12-29T06:54:42;18.63;;;16.93;;
3405;SDS011;10008;48.682;9.016;2023-12-29T06:57:08;19.97;;;18.07;;
3405;SDS011;10008;48.682;9.016;2023-12-29T06:59:33;19.77;;;17.97;;
3405;SDS011;10008;48.682;9.016;2023-12-29T07:01:59;19.90;;;17.80;;
3405;SDS011;10008;48.682;9.016;2023-12-29T07:04:25;20.73;;;19.00;;
3405;SDS011;10008;48.682;9.016;2023-12-29T07:06:51;20.90;;;19.00;;
3405;SDS011;10008;48.682;9.016;2023-12-29T07:09:18;21.77;;;19.70;;
3405;SDS011;10008;48.682;9.016;2023-12-29T07:11:47;23.17;;;21.20;;
3405;SDS011;10008;48.682;9.016;2023-12-29T07:14:16;22.47;;;20.37;;
3405;SDS011;10008;48.682;9.016;2023-12-29T07:16:42;19.60;;;17.83;;
3405;SDS011;10008;48.682;9.016;2023-12-29T07:19:08;20.57;;;18.77;;
3405;SDS011;10008;48.682;9.016;2023-12-29T07:21:34;20.57;;;18.77;;
3405;SDS011;10008;48.682;9.016;2023-12-29T07:24:00;21.03;;;19.03;;
3405;SDS011;10008;48.682;9.016;2023-12-29T07:26:26;20.90;;;19.07;;
3405;SDS011;10008;48.682;9.016;2023-12-29T07:28:52;21.47;;;19.67;;
3405;SDS011;10008;48.682;9.016;2023-12-29T07:31:19;20.87;;;19.07;;
3405;SDS011;10008;48.682;9.016;2023-12-29T07:33:46;20.00;;;18.20;;
3405;SDS011;10008;48.682;9.016;2023-12-29T07:36:12;21.90;;;19.90;;
3405;SDS011;10008;48.682;9.016;2023-12-29T07:38:37;20.37;;;18.47;;
3405;SDS011;10008;48.682;9.016;2023-12-29T07:41:03;20.90;;;18.80;;
3405;SDS011;10008;48.682;9.016;2023-12-29T07:43:29;23.47;;;21.37;;
3405;SDS011;10008;48.682;9.016;2023-12-29T07:45:56;21.00;;;18.90;;
3405;SDS011;10008;48.682;9.016;2023-12-29T07:48:22;20.80;;;18.80;;
3405;SDS011;10008;48.682;9.016;2023-12-29T07:50:47;20.50;;;18.70;;
3405;SDS011;10008;48.682;9.016;2023-12-29T07:53:13;19.50;;;17.80;;
3405;SDS011;10008;48.682;9.016;2023-12-29T07:55:39;19.10;;;17.40;;
3405;SDS011;10008;48.682;9.016;2023-12-29T07:58:05;20.60;;;18.60;;
3405;SDS011;10008;48.682;9.016;2023-12-29T08:00:31;20.20;;;18.30;;
3405;SDS011;10008;48.682;9.016;2023-12-29T08:02:58;20.20;;;18.40;;
3405;SDS011;10008;48.682;9.016;2023-12-29T08:05:24;19.63;;;17.73;;
3405;SDS011;10008;48.682;9.016;2023-12-29T08:07:50;19.97;;;18.07;;
3405;SDS011;10008;48.682;9.016;2023-12-29T08:10:16;20.60;;;18.70;;
3405;SDS011;10008;48.682;9.016;2023-12-29T08:12:42;20.03;;;18.00;;
3405;SDS011;10008;48.682;9.016;2023-12-29T08:15:08;19.60;;;17.80;;
3405;SDS011;10008;48.682;9.016;2023-12-29T08:17:33;18.93;;;17.23;;
3405;SDS011;10008;48.682;9.016;2023-12-29T08:19:59;19.77;;;17.57;;
3405;SDS011;10008;48.682;9.016;2023-12-29T08:22:27;20.33;;;18.20;;
3405;SDS011;10008;48.682;9.016;2023-12-29T08:24:54;20.23;;;18.30;;
3405;SDS011;10008;48.682;9.016;2023-12-29T08:27:24;20.73;;;18.90;;
3405;SDS011;10008;48.682;9.016;2023-12-29T08:29:53;21.90;;;20.00;;
3405;SDS011;10008;48.682;9.016;2023-12-29T08:32:19;19.83;;;17.93;;
3405;SDS011;10008;48.682;9.016;2023-12-29T08:34:45;20.60;;;18.70;;
3405;SDS011;10008;48.682;9.016;2023-12-29T08:37:10;20.53;;;18.43;;
3405;SDS011;10008;48.682;9.016;2023-12-29T08:39:36;20.33;;;18.43;;
3405;SDS011;10008;48.682;9.016;2023-12-29T08:42:02;20.30;;;18.30;;
3405;SDS011;10008;48.682;9.016;2023-12-29T08:44:28;20.33;;;18.43;;
3405;SDS011;10008;48.682;9.016;2023-12-29T08:46:53;20.93;;;18.93;;
3405;SDS011;10008;48.682;9.016;2023-12-29T08:49:19;20.63;;;18.80;;
3405;SDS011;10008;48.682;9.016;2023-12-29T08:51:45;20.00;;;18.20;;
3405;SDS011;10008;48.682;9.016;2023-12-29T08:54:10;20.63;;;17.53;;
3405;SDS011;10008;48.682;9.016;2023-12-29T08:56:36;20.27;;;18.30;;
3405;SDS011;10008;48.682;9.016;2023-12-29T08:59:02;19.80;;;18.00;;
3405;SDS011;10008;48.682;9.016;2023-12-29T09:01:28;19.93;;;18.10;;
3405;SDS011;10008;48.682;9.016;2023-12-29T09:03:53;19.57;;;17.80;;
3405;SDS011;10008;48.682;9.016;2023-12-29T09:06:19;19.13;;;17.43;;
3405;SDS011;10008;48.682;9.016;2023-12-29T09:08:45;19.97;;;17.93;;
3405;SDS011;10008;48.682;9.016;2023-12-29T09:11:10;18.60;;;16.93;;
3405;SDS011;10008;48.682;9.016;2023-12-29T09:13:36;18.80;;;17.10;;
3405;SDS011;10008;48.682;9.016;2023-12-29T09:16:02;18.50;;;16.93;;
3405;SDS011;10008;48.682;9.016;2023-12-29T09:18:28;19.90;;;18.00;;
3405;SDS011;10008;48.682;9.016;2023-12-29T09:20:53;19.23;;;17.47;;
3405;SDS011;10008;48.682;9.016;2023-12-29T09:23:19;19.23;;;17.43;;
3405;SDS011;10008;48.682;9.016;2023-12-29T09:25:45;19.17;;;17.30;;
3405;SDS011;10008;48.682;9.016;2023-12-29T09:28:11;18.37;;;16.77;;
3405;SDS011;10008;48.682;9.016;2023-12-29T09:30:37;18.93;;;17.13;;
3405;SDS011;10008;48.682;9.016;2023-12-29T09:33:03;18.23;;;16.63;;
3405;SDS011;10008;48.682;9.016;2023-12-29T09:35:28;18.70;;;17.00;;
3405;SDS011;10008;48.682;9.016;2023-12-29T09:37:54;18.70;;;17.00;;
3405;SDS011;10008;48.682;9.016;2023-12-29T09:40:20;18.07;;;16.53;;
3405;SDS011;10008;48.682;9.016;2023-12-29T09:42:46;17.97;;;16.37;;
3405;SDS011;10008;48.682;9.016;2023-12-29T09:45:13;19.03;;;17.33;;
3405;SDS011;10008;48.682;9.016;2023-12-29T09:47:43;18.40;;;16.80;;
3405;SDS011;10008;48.682;9.016;2023-12-29T09:50:12;18.90;;;17.30;;
3405;SDS011;10008;48.682;9.016;2023-12-29T09:52:38;18.43;;;16.87;;
3405;SDS011;10008;48.682;9.016;2023-12-29T09:55:05;18.00;;;16.37;;
3405;SDS011;10008;48.682;9.016;2023-12-29T09:57:36;18.60;;;16.90;;
3405;SDS011;10008;48.682;9.016;2023-12-29T10:00:03;18.30;;;16.70;;
3405;SDS011;10008;48.682;9.016;2023-12-29T10:02:36;17.80;;;16.30;;
3405;SDS011;10008;48.682;9.016;2023-12-29T10:05:02;18.03;;;16.33;;
3405;SDS011;10008;48.682;9.016;2023-12-29T10:07:29;17.17;;;15.67;;
3405;SDS011;10008;48.682;9.016;2023-12-29T10:10:03;17.33;;;15.93;;
3405;SDS011;10008;48.682;9.016;2023-12-29T10:12:31;16.50;;;15.10;;
3405;SDS011;10008;48.682;9.016;2023-12-29T10:17:52;16.30;;;14.90;;
3405;SDS011;10008;48.682;9.016;2023-12-29T10:20:33;17.03;;;15.63;;
3405;SDS011;10008;48.682;9.016;2023-12-29T10:23:10;17.10;;;15.77;;
3405;SDS011;10008;48.682;9.016;2023-12-29T10:25:42;16.23;;;14.77;;
3405;SDS011;10008;48.682;9.016;2023-12-29T10:28:11;16.87;;;15.57;;
3405;SDS011;10008;48.682;9.016;2023-12-29T10:30:38;16.37;;;15.07;;
3405;SDS011;10008;48.682;9.016;2023-12-29T10:33:04;15.93;;;14.63;;
3405;SDS011;10008;48.682;9.016;2023-12-29T10:35:30;15.10;;;13.80;;
3405;SDS011;10008;48.682;9.016;2023-12-29T10:38:11;15.13;;;13.93;;
3405;SDS011;10008;48.682;9.016;2023-12-29T10:40:38;15.80;;;14.47;;
3405;SDS011;10008;48.682;9.016;2023-12-29T10:43:04;15.17;;;13.97;;
3405;SDS011;10008;48.682;9.016;2023-12-29T10:45:33;15.00;;;13.90;;
3405;SDS011;10008;48.682;9.016;2023-12-29T10:48:01;14.67;;;13.53;;
3405;SDS011;10008;48.682;9.016;2023-12-29T10:50:27;15.37;;;14.13;;
3405;SDS011;10008;48.682;9.016;2023-12-29T10:53:12;14.93;;;13.83;;
3405;SDS011;10008;48.682;9.016;2023-12-29T10:55:39;14.20;;;13.20;;
3405;SDS011;10008;48.682;9.016;2023-12-29T10:58:05;12.90;;;12.00;;
3405;SDS011;10008;48.682;9.016;2023-12-29T11:00:31;12.70;;;11.73;;
3405;SDS011;10008;48.682;9.016;2023-12-29T11:03:00;12.40;;;11.40;;
3405;SDS011;10008;48.682;9.016;2023-12-29T11:05:26;13.10;;;12.10;;
3405;SDS011;10008;48.682;9.016;2023-12-29T11:07:53;12.13;;;11.20;;
3405;SDS011;10008;48.682;9.016;2023-12-29T11:10:20;11.80;;;10.80;;
3405;SDS011;10008;48.682;9.016;2023-12-29T11:12:47;11.80;;;10.80;;
3405;SDS011;10008;48.682;9.016;2023-12-29T11:15:13;12.10;;;11.20;;
3405;SDS011;10008;48.682;9.016;2023-12-29T11:17:41;11.70;;;10.90;;
3405;SDS011;10008;48.682;9.016;2023-12-29T11:20:17;11.70;;;10.90;;
3405;SDS011;10008;48.682;9.016;2023-12-29T11:22:46;11.03;;;10.23;;
3405;SDS011;10008;48.682;9.016;2023-12-29T11:25:12;12.03;;;11.13;;
3405;SDS011;10008;48.682;9.016;2023-12-29T11:27:40;10.70;;;9.90;;
3405;SDS011;10008;48.682;9.016;2023-12-29T11:30:07;10.60;;;9.90;;
3405;SDS011;10008;48.682;9.016;2023-12-29T11:44:02;10.90;;;10.10;;
3405;SDS011;10008;48.682;9.016;2023-12-29T11:49:10;11.30;;;10.40;;
3405;SDS011;10008;48.682;9.016;2023-12-29T11:51:39;10.47;;;9.67;;
3405;SDS011;10008;48.682;9.016;2023-12-29T11:54:06;11.07;;;10.27;;
3405;SDS011;10008;48.682;9.016;2023-12-29T11:56:35;11.10;;;10.30;;
3405;SDS011;10008;48.682;9.016;2023-12-29T12:01:54;10.60;;;9.87;;
3405;SDS011;10008;48.682;9.016;2023-12-29T12:07:02;10.27;;;9.57;;
3405;SDS011;10008;48.682;9.016;2023-12-29T12:09:29;10.57;;;9.70;;
3405;SDS011;10008;48.682;9.016;2023-12-29T12:11:54;10.20;;;9.40;;
3405;SDS011;10008;48.682;9.016;2023-12-29T12:20:02;10.87;;;9.97;;
3405;SDS011;10008;48.682;9.016;2023-12-29T12:22:31;10.83;;;10.03;;
3405;SDS011;10008;48.682;9.016;2023-12-29T12:24:58;10.80;;;9.90;;
3405;SDS011;10008;48.682;9.016;2023-12-29T12:27:25;10.53;;;9.73;;
3405;SDS011;10008;48.682;9.016;2023-12-29T12:29:58;9.97;;;9.27;;
3405;SDS011;10008;48.682;9.016;2023-12-29T12:32:25;10.40;;;9.70;;
3405;SDS011;10008;48.682;9.016;2023-12-29T12:34:52;10.60;;;9.80;;
3405;SDS011;10008;48.682;9.016;2023-12-29T12:37:25;10.20;;;9.50;;
3405;SDS011;10008;48.682;9.016;2023-12-29T12:39:51;10.23;;;9.30;;
3405;SDS011;10008;48.682;9.016;2023-12-29T12:42:19;10.80;;;9.90;;
3405;SDS011;10008;48.682;9.016;2023-12-29T12:44:55;10.00;;;9.20;;
3405;SDS011;10008;48.682;9.016;2023-12-29T12:47:33;9.70;;;9.00;;
3405;SDS011;10008;48.682;9.016;2023-12-29T12:50:02;10.10;;;9.40;;
3405;SDS011;10008;48.682;9.016;2023-12-29T12:52:30;10.00;;;9.30;;
3405;SDS011;10008;48.682;9.016;2023-12-29T12:54:57;9.80;;;9.10;;
3405;SDS011;10008;48.682;9.016;2023-12-29T12:57:23;9.50;;;8.80;;
3405;SDS011;10008;48.682;9.016;2023-12-29T12:59:49;10.17;;;9.37;;
3405;SDS011;10008;48.682;9.016;2023-12-29T13:02:17;10.40;;;9.17;;
3405;SDS011;10008;48.682;9.016;2023-12-29T13:04:45;9.63;;;8.93;;
3405;SDS011;10008;48.682;9.016;2023-12-29T13:07:11;10.00;;;9.30;;
3405;SDS011;10008;48.682;9.016;2023-12-29T13:09:40;9.93;;;9.13;;
3405;SDS011;10008;48.682;9.016;2023-12-29T13:12:10;10.20;;;9.40;;
3405;SDS011;10008;48.682;9.016;2023-12-29T13:14:36;10.20;;;9.40;;
3405;SDS011;10008;48.682;9.016;2023-12-29T13:17:09;9.90;;;9.20;;
3405;SDS011;10008;48.682;9.016;2023-12-29T13:19:36;9.80;;;9.10;;
3405;SDS011;10008;48.682;9.016;2023-12-29T13:22:11;9.73;;;9.03;;
3405;SDS011;10008;48.682;9.016;2023-12-29T13:24:45;10.43;;;9.63;;
3405;SDS011;10008;48.682;9.016;2023-12-29T13:27:12;10.67;;;9.87;;
3405;SDS011;10008;48.682;9.016;2023-12-29T13:29:38;10.33;;;9.53;;
3405;SDS011;10008;48.682;9.016;2023-12-29T13:32:07;10.10;;;9.40;;
3405;SDS011;10008;48.682;9.016;2023-12-29T13:34:52;10.00;;;9.30;;
3405;SDS011;10008;48.682;9.016;2023-12-29T13:40:24;10.20;;;9.50;;
3405;SDS011;10008;48.682;9.016;2023-12-29T13:43:03;11.13;;;10.30;;
3405;SDS011;10008;48.682;9.016;2023-12-29T13:45:33;10.30;;;9.50;;
3405;SDS011;10008;48.682;9.016;2023-12-29T13:48:00;10.60;;;9.80;;
3405;SDS011;10008;48.682;9.016;2023-12-29T13:50:28;10.83;;;10.03;;
3405;SDS011;10008;48.682;9.016;2023-12-29T13:52:53;10.83;;;10.13;;
3405;SDS011;10008;48.682;9.016;2023-12-29T13:55:20;10.57;;;9.77;;
3405;SDS011;10008;48.682;9.016;2023-12-29T13:57:47;10.37;;;9.50;;
3405;SDS011;10008;48.682;9.016;2023-12-29T14:00:17;9.80;;;9.10;;
3405;SDS011;10008;48.682;9.016;2023-12-29T14:05:28;10.47;;;9.67;;
3405;SDS011;10008;48.682;9.016;2023-12-29T14:08:05;10.80;;;10.00;;
3405;SDS011;10008;48.682;9.016;2023-12-29T14:10:48;11.00;;;10.00;;
3405;SDS011;10008;48.682;9.016;2023-12-29T14:13:14;10.50;;;9.70;;
3405;SDS011;10008;48.682;9.016;2023-12-29T14:15:42;10.80;;;10.00;;
3405;SDS011;10008;48.682;9.016;2023-12-29T14:20:37;10.80;;;10.00;;
3405;SDS011;10008;48.682;9.016;2023-12-29T14:23:05;10.73;;;9.93;;
3405;SDS011;10008;48.682;9.016;2023-12-29T14:25:35;9.87;;;9.17;;
3405;SDS011;10008;48.682;9.016;2023-12-29T14:28:02;10.57;;;9.80;;
3405;SDS011;10008;48.682;9.016;2023-12-29T14:30:29;11.07;;;10.17;;
3405;SDS011;10008;48.682;9.016;2023-12-29T14:32:57;10.53;;;9.73;;
3405;SDS011;10008;48.682;9.016;2023-12-29T14:35:23;10.43;;;9.63;;
3405;SDS011;10008;48.682;9.016;2023-12-29T14:37:49;10.73;;;9.93;;
3405;SDS011;10008;48.682;9.016;2023-12-29T14:40:15;11.20;;;10.40;;
3405;SDS011;10008;48.682;9.016;2023-12-29T14:42:41;11.40;;;10.40;;
3405;SDS011;10008;48.682;9.016;2023-12-29T14:45:07;10.80;;;10.00;;
3405;SDS011;10008;48.682;9.016;2023-12-29T14:47:34;11.17;;;10.37;;
3405;SDS011;10008;48.682;9.016;2023-12-29T14:50:00;11.90;;;10.90;;
3405;SDS011;10008;48.682;9.016;2023-12-29T14:52:26;11.33;;;10.43;;
3405;SDS011;10008;48.682;9.016;2023-12-29T14:54:52;13.63;;;11.17;;
3405;SDS011;10008;48.682;9.016;2023-12-29T14:57:17;11.30;;;10.50;;
3405;SDS011;10008;48.682;9.016;2023-12-29T14:59:43;11.73;;;10.83;;
3405;SDS011;10008;48.682;9.016;2023-12-29T15:02:09;11.10;;;10.30;;
3405;SDS011;10008;48.682;9.016;2023-12-29T15:04:35;9.77;;;9.07;;
3405;SDS011;10008;48.682;9.016;2023-12-29T15:07:01;9.83;;;9.03;;
3405;SDS011;10008;48.682;9.016;2023-12-29T15:09:28;9.60;;;8.90;;
3405;SDS011;10008;48.682;9.016;2023-12-29T15:11:53;9.47;;;8.77;;
3405;SDS011;10008;48.682;9.016;2023-12-29T15:14:20;9.50;;;8.80;;